VIR7B EGLL-KLAX
Flight info
| Callsign | VIR7B |
|---|---|
| Flight time | N/A |
| Altitude | 34000 |
| Route | CPT L9 DIDZA N14 OKTAD DCT MEDOG DCT KRAGY DCT PEMOB DCT VATRY DCT KORAK DCT CON DCT SUNOT/M086F340 DCT 58N020W 59N030W 60N040W 61N050W DCT KETLA/N0492F340 N982A FEDDY DCT 60N080W 57N090W 53N100W DCT KATEN DCT BIL/N0484F360 DCT PICHO Q842 WINEN/N0482F350 Q73 EEVUN/N0482F360 Q73 HAKMN ANJLL4 |
| Aircraft | A35K/H-SDE2E3GHIJ3J4J5LM1ORWXY/LB1D1 |
Departure
| Time | 2026-05-06 09:47 |
|---|---|
| Airport | London Heathrow Airport (EGLL) |
Arrival
| Time | N/A |
|---|---|
| Airport | Los Angeles International Airport (KLAX) |
| Time | Latitude | Longitude | Altitude | Speed | Heading |
|---|---|---|---|---|---|
| 2026-05-06 08:25 | 51.47038 | -0.46359 | 97 ft | 0 kts | 235° |
| 2026-05-06 09:14 | 51.47044 | -0.46343 | 96 ft | 4 kts | 235° |
| 2026-05-06 09:14 | 51.47060 | -0.46308 | 95 ft | 4 kts | 235° |
| 2026-05-06 09:14 | 51.47071 | -0.46279 | 91 ft | 4 kts | 253° |
| 2026-05-06 09:15 | 51.47071 | -0.46244 | 90 ft | 4 kts | 309° |
| 2026-05-06 09:15 | 51.47052 | -0.46218 | 92 ft | 4 kts | 325° |
| 2026-05-06 09:15 | 51.47033 | -0.46197 | 94 ft | 1 kts | 325° |
| 2026-05-06 09:21 | 51.47034 | -0.46199 | 94 ft | 0 kts | 325° |
| 2026-05-06 09:21 | 51.47065 | -0.46233 | 90 ft | 13 kts | 326° |
| 2026-05-06 09:21 | 51.47146 | -0.46321 | 96 ft | 14 kts | 326° |
| 2026-05-06 09:21 | 51.47221 | -0.46411 | 96 ft | 13 kts | 312° |
| 2026-05-06 09:22 | 51.47239 | -0.46546 | 92 ft | 13 kts | 272° |
| 2026-05-06 09:22 | 51.47240 | -0.46688 | 95 ft | 13 kts | 269° |
| 2026-05-06 09:22 | 51.47233 | -0.46829 | 96 ft | 11 kts | 246° |
| 2026-05-06 09:22 | 51.47169 | -0.46868 | 95 ft | 10 kts | 184° |
| 2026-05-06 09:23 | 51.47095 | -0.46867 | 93 ft | 11 kts | 179° |
| 2026-05-06 09:23 | 51.47013 | -0.46863 | 92 ft | 13 kts | 179° |
| 2026-05-06 09:23 | 51.46918 | -0.46862 | 95 ft | 14 kts | 180° |
| 2026-05-06 09:23 | 51.46819 | -0.46860 | 94 ft | 15 kts | 179° |
| 2026-05-06 09:24 | 51.46715 | -0.46861 | 94 ft | 14 kts | 180° |
| 2026-05-06 09:24 | 51.46671 | -0.46889 | 97 ft | 5 kts | 239° |
| 2026-05-06 09:24 | 51.46660 | -0.46966 | 96 ft | 11 kts | 265° |
| 2026-05-06 09:24 | 51.46658 | -0.47123 | 95 ft | 16 kts | 270° |
| 2026-05-06 09:25 | 51.46658 | -0.47304 | 95 ft | 16 kts | 268° |
| 2026-05-06 09:25 | 51.46656 | -0.47485 | 96 ft | 16 kts | 269° |
| 2026-05-06 09:25 | 51.46655 | -0.47666 | 94 ft | 15 kts | 270° |
| 2026-05-06 09:25 | 51.46655 | -0.47829 | 95 ft | 14 kts | 270° |
| 2026-05-06 09:26 | 51.46655 | -0.47982 | 95 ft | 11 kts | 269° |
| 2026-05-06 09:26 | 51.46654 | -0.48059 | 94 ft | 1 kts | 270° |
| 2026-05-06 09:33 | 51.46654 | -0.48089 | 92 ft | 6 kts | 270° |
| 2026-05-06 09:34 | 51.46654 | -0.48164 | 93 ft | 9 kts | 269° |
| 2026-05-06 09:34 | 51.46653 | -0.48284 | 94 ft | 11 kts | 269° |
| 2026-05-06 09:34 | 51.46652 | -0.48412 | 95 ft | 12 kts | 269° |
| 2026-05-06 09:34 | 51.46651 | -0.48546 | 92 ft | 12 kts | 270° |
| 2026-05-06 09:35 | 51.46651 | -0.48682 | 94 ft | 11 kts | 270° |
| 2026-05-06 09:35 | 51.46644 | -0.48715 | 95 ft | 3 kts | 236° |
| 2026-05-06 09:35 | 51.46620 | -0.48748 | 96 ft | 6 kts | 214° |
| 2026-05-06 09:35 | 51.46613 | -0.48753 | 95 ft | 0 kts | 206° |
| 2026-05-06 09:38 | 51.46612 | -0.48753 | 92 ft | 0 kts | 206° |
| 2026-05-06 09:39 | 51.46608 | -0.48757 | 92 ft | 1 kts | 206° |
| 2026-05-06 09:39 | 51.46573 | -0.48777 | 93 ft | 9 kts | 194° |
| 2026-05-06 09:39 | 51.46520 | -0.48772 | 96 ft | 6 kts | 158° |
| 2026-05-06 09:39 | 51.46494 | -0.48744 | 96 ft | 4 kts | 142° |
| 2026-05-06 09:40 | 51.46481 | -0.48706 | 95 ft | 4 kts | 105° |
| 2026-05-06 09:40 | 51.46478 | -0.48659 | 95 ft | 5 kts | 92° |
| 2026-05-06 09:40 | 51.46478 | -0.48644 | 94 ft | 0 kts | 90° |
| 2026-05-06 09:46 | 51.46478 | -0.48626 | 94 ft | 14 kts | 90° |
| 2026-05-06 09:46 | 51.46482 | -0.48053 | 96 ft | 89 kts | 89° |
| 2026-05-06 09:46 | 51.46485 | -0.46735 | 99 ft | 153 kts | 90° |
| 2026-05-06 09:46 | 51.46479 | -0.44679 | 316 ft | 191 kts | 87° |
| 2026-05-06 09:47 | 51.46446 | -0.42575 | 1263 ft | 187 kts | 87° |
| 2026-05-06 09:47 | 51.46437 | -0.40475 | 2003 ft | 197 kts | 86° |
| 2026-05-06 09:47 | 51.46277 | -0.38190 | 2257 ft | 216 kts | 106° |
| 2026-05-06 09:47 | 51.45372 | -0.36169 | 2452 ft | 239 kts | 140° |
| 2026-05-06 09:48 | 51.43791 | -0.35073 | 2688 ft | 257 kts | 172° |
| 2026-05-06 09:48 | 51.42010 | -0.35367 | 3088 ft | 265 kts | 201° |
| 2026-05-06 09:48 | 51.40408 | -0.36862 | 3492 ft | 271 kts | 220° |
| 2026-05-06 09:48 | 51.39244 | -0.39204 | 3941 ft | 269 kts | 250° |
| 2026-05-06 09:49 | 51.38891 | -0.42060 | 4476 ft | 260 kts | 277° |
| 2026-05-06 09:49 | 51.39109 | -0.44915 | 5082 ft | 257 kts | 284° |
| 2026-05-06 09:49 | 51.39445 | -0.47716 | 5670 ft | 257 kts | 285° |
| 2026-05-06 09:49 | 51.39809 | -0.50523 | 6273 ft | 257 kts | 285° |
| 2026-05-06 09:50 | 51.40189 | -0.53328 | 6837 ft | 259 kts | 285° |
| 2026-05-06 09:50 | 51.40584 | -0.56154 | 7335 ft | 263 kts | 285° |
| 2026-05-06 09:50 | 51.40995 | -0.59024 | 7844 ft | 266 kts | 285° |
| 2026-05-06 09:50 | 51.41420 | -0.61928 | 8385 ft | 269 kts | 285° |
| 2026-05-06 09:51 | 51.41858 | -0.64869 | 8914 ft | 273 kts | 286° |
| 2026-05-06 09:51 | 51.42372 | -0.67790 | 9475 ft | 274 kts | 292° |
| 2026-05-06 09:51 | 51.43044 | -0.70683 | 10025 ft | 278 kts | 292° |
| 2026-05-06 09:51 | 51.43771 | -0.73619 | 10313 ft | 290 kts | 294° |
| 2026-05-06 09:52 | 51.44558 | -0.76681 | 10581 ft | 303 kts | 294° |
| 2026-05-06 09:52 | 51.45394 | -0.79875 | 10819 ft | 318 kts | 294° |
| 2026-05-06 09:52 | 51.46259 | -0.83168 | 11066 ft | 331 kts | 294° |
| 2026-05-06 09:52 | 51.47170 | -0.86635 | 11324 ft | 344 kts | 294° |
| 2026-05-06 09:53 | 51.48111 | -0.90232 | 11589 ft | 356 kts | 294° |
| 2026-05-06 09:53 | 51.49111 | -0.93938 | 11893 ft | 367 kts | 295° |
| 2026-05-06 09:53 | 51.50192 | -0.97704 | 12409 ft | 371 kts | 296° |
| 2026-05-06 09:53 | 51.51308 | -1.01491 | 12878 ft | 376 kts | 296° |
| 2026-05-06 09:54 | 51.52425 | -1.05278 | 13543 ft | 377 kts | 296° |
| 2026-05-06 09:54 | 51.53550 | -1.09113 | 13998 ft | 381 kts | 295° |
| 2026-05-06 09:54 | 51.54681 | -1.13006 | 14372 ft | 388 kts | 295° |
| 2026-05-06 09:54 | 51.55803 | -1.16899 | 14869 ft | 390 kts | 295° |
| 2026-05-06 09:55 | 51.56932 | -1.20840 | 15545 ft | 386 kts | 295° |
| 2026-05-06 09:55 | 51.58054 | -1.24766 | 16116 ft | 388 kts | 295° |
| 2026-05-06 09:55 | 51.59188 | -1.28751 | 16415 ft | 396 kts | 294° |
| 2026-05-06 09:55 | 51.60340 | -1.32800 | 16941 ft | 397 kts | 294° |
| 2026-05-06 09:56 | 51.61488 | -1.36843 | 17547 ft | 397 kts | 294° |
| 2026-05-06 09:56 | 51.62639 | -1.40904 | 18012 ft | 401 kts | 294° |
| 2026-05-06 09:56 | 51.63806 | -1.45026 | 18376 ft | 407 kts | 294° |
| 2026-05-06 09:56 | 51.64982 | -1.49186 | 18847 ft | 408 kts | 294° |
| 2026-05-06 09:57 | 51.66155 | -1.53341 | 19373 ft | 409 kts | 294° |
| 2026-05-06 09:57 | 51.67327 | -1.57500 | 19740 ft | 414 kts | 294° |
| 2026-05-06 09:57 | 51.68519 | -1.61740 | 20211 ft | 416 kts | 294° |
| 2026-05-06 09:57 | 51.69673 | -1.66050 | 20606 ft | 420 kts | 289° |
| 2026-05-06 09:58 | 51.70443 | -1.70596 | 21064 ft | 422 kts | 281° |
| 2026-05-06 09:58 | 51.70948 | -1.75251 | 21603 ft | 422 kts | 278° |
| 2026-05-06 09:58 | 51.71348 | -1.79950 | 22030 ft | 425 kts | 277° |
| 2026-05-06 09:58 | 51.71761 | -1.84690 | 22495 ft | 428 kts | 280° |
| 2026-05-06 09:59 | 51.72343 | -1.89423 | 22874 ft | 432 kts | 281° |
| 2026-05-06 09:59 | 51.72981 | -1.94161 | 23338 ft | 434 kts | 282° |
| 2026-05-06 09:59 | 51.73661 | -1.98922 | 23773 ft | 436 kts | 282° |
| 2026-05-06 09:59 | 51.74364 | -2.03704 | 24133 ft | 439 kts | 283° |
| 2026-05-06 10:00 | 51.75079 | -2.08509 | 24480 ft | 442 kts | 283° |
| 2026-05-06 10:00 | 51.75919 | -2.13293 | 24851 ft | 444 kts | 289° |
| 2026-05-06 10:00 | 51.76980 | -2.17989 | 25211 ft | 447 kts | 290° |
| 2026-05-06 10:00 | 51.78120 | -2.22680 | 25561 ft | 449 kts | 291° |
| 2026-05-06 10:01 | 51.79287 | -2.27306 | 25933 ft | 451 kts | 291° |
| 2026-05-06 10:01 | 51.80486 | -2.31984 | 26346 ft | 452 kts | 291° |
| 2026-05-06 10:01 | 51.81695 | -2.36696 | 26678 ft | 455 kts | 291° |
| 2026-05-06 10:01 | 51.82903 | -2.41431 | 26999 ft | 457 kts | 291° |
| 2026-05-06 10:02 | 51.84121 | -2.46230 | 27363 ft | 459 kts | 291° |
| 2026-05-06 10:02 | 51.85310 | -2.50946 | 27726 ft | 460 kts | 291° |
| 2026-05-06 10:02 | 51.86521 | -2.55769 | 28036 ft | 463 kts | 291° |
| 2026-05-06 10:02 | 51.87732 | -2.60609 | 28342 ft | 465 kts | 291° |
| 2026-05-06 10:03 | 51.88948 | -2.65482 | 28641 ft | 467 kts | 291° |
| 2026-05-06 10:03 | 51.90165 | -2.70368 | 28930 ft | 469 kts | 291° |
| 2026-05-06 10:03 | 51.91389 | -2.75291 | 29203 ft | 471 kts | 291° |
| 2026-05-06 10:03 | 51.92616 | -2.80240 | 29480 ft | 473 kts | 291° |
| 2026-05-06 10:04 | 51.93841 | -2.85189 | 29819 ft | 474 kts | 291° |
| 2026-05-06 10:04 | 51.95066 | -2.90146 | 30220 ft | 472 kts | 291° |
| 2026-05-06 10:04 | 51.96268 | -2.95026 | 30530 ft | 471 kts | 291° |
| 2026-05-06 10:04 | 51.97479 | -2.99951 | 30919 ft | 469 kts | 291° |
| 2026-05-06 10:05 | 51.98682 | -3.04852 | 31226 ft | 468 kts | 291° |
| 2026-05-06 10:05 | 51.99880 | -3.09749 | 31498 ft | 467 kts | 291° |
| 2026-05-06 10:05 | 52.01076 | -3.14647 | 31831 ft | 465 kts | 290° |
| 2026-05-06 10:05 | 52.02264 | -3.19518 | 32179 ft | 463 kts | 290° |
| 2026-05-06 10:06 | 52.03446 | -3.24382 | 32449 ft | 462 kts | 290° |
| 2026-05-06 10:06 | 52.04623 | -3.29233 | 32677 ft | 462 kts | 290° |
| 2026-05-06 10:06 | 52.05797 | -3.34084 | 32910 ft | 461 kts | 290° |
| 2026-05-06 10:06 | 52.06969 | -3.38940 | 33147 ft | 461 kts | 290° |
| 2026-05-06 10:07 | 52.08137 | -3.43789 | 33370 ft | 460 kts | 290° |
| 2026-05-06 10:07 | 52.09298 | -3.48614 | 33655 ft | 458 kts | 290° |
| 2026-05-06 10:07 | 52.10456 | -3.53441 | 33875 ft | 457 kts | 290° |
| 2026-05-06 10:07 | 52.11609 | -3.58256 | 34030 ft | 458 kts | 290° |
| 2026-05-06 10:08 | 52.13918 | -3.67943 | 34037 ft | 464 kts | 290° |
| 2026-05-06 10:08 | 52.16249 | -3.77755 | 34033 ft | 463 kts | 290° |
| 2026-05-06 10:09 | 52.18568 | -3.87562 | 34033 ft | 463 kts | 290° |
| 2026-05-06 10:09 | 52.20865 | -3.97320 | 34028 ft | 463 kts | 289° |
| 2026-05-06 10:10 | 52.23161 | -4.07121 | 34029 ft | 462 kts | 289° |
| 2026-05-06 10:10 | 52.25447 | -4.16922 | 34026 ft | 462 kts | 289° |
| 2026-05-06 10:11 | 52.27726 | -4.26740 | 34026 ft | 462 kts | 289° |
| 2026-05-06 10:11 | 52.29980 | -4.36496 | 34029 ft | 462 kts | 289° |
| 2026-05-06 10:12 | 52.32241 | -4.46323 | 34029 ft | 462 kts | 289° |
| 2026-05-06 10:12 | 52.34491 | -4.56153 | 34031 ft | 461 kts | 289° |
| 2026-05-06 10:13 | 52.36732 | -4.65988 | 34031 ft | 461 kts | 289° |
| 2026-05-06 10:13 | 52.38965 | -4.75829 | 34034 ft | 461 kts | 289° |
| 2026-05-06 10:14 | 52.41190 | -4.85684 | 34034 ft | 461 kts | 289° |
| 2026-05-06 10:14 | 52.43392 | -4.95485 | 34035 ft | 461 kts | 289° |
| 2026-05-06 10:15 | 52.45603 | -5.05370 | 34037 ft | 462 kts | 289° |
| 2026-05-06 10:15 | 52.47817 | -5.15315 | 34040 ft | 462 kts | 289° |
| 2026-05-06 10:16 | 52.50012 | -5.25226 | 34037 ft | 462 kts | 289° |
| 2026-05-06 10:16 | 52.52185 | -5.35079 | 34037 ft | 462 kts | 289° |
| 2026-05-06 10:17 | 52.54369 | -5.45024 | 34037 ft | 462 kts | 289° |
| 2026-05-06 10:17 | 52.57220 | -5.54514 | 34037 ft | 464 kts | 299° |
| 2026-05-06 10:18 | 52.60595 | -5.63571 | 34042 ft | 464 kts | 300° |
| 2026-05-06 10:18 | 52.64022 | -5.72508 | 34048 ft | 464 kts | 301° |
| 2026-05-06 10:19 | 52.67473 | -5.81538 | 34042 ft | 465 kts | 300° |
| 2026-05-06 10:19 | 52.70899 | -5.90581 | 34039 ft | 465 kts | 300° |
| 2026-05-06 10:20 | 52.74315 | -5.99646 | 34040 ft | 465 kts | 300° |
| 2026-05-06 10:20 | 52.77719 | -6.08719 | 34039 ft | 464 kts | 300° |
| 2026-05-06 10:21 | 52.81094 | -6.17744 | 34040 ft | 464 kts | 300° |
| 2026-05-06 10:21 | 52.84484 | -6.26842 | 34054 ft | 464 kts | 300° |
| 2026-05-06 10:22 | 52.87865 | -6.35947 | 34041 ft | 465 kts | 300° |
| 2026-05-06 10:22 | 52.91246 | -6.45081 | 34037 ft | 465 kts | 300° |
| 2026-05-06 10:23 | 52.94601 | -6.54181 | 34032 ft | 465 kts | 300° |
| 2026-05-06 10:23 | 52.97968 | -6.63346 | 34029 ft | 465 kts | 301° |
| 2026-05-06 10:24 | 53.01332 | -6.72538 | 34039 ft | 466 kts | 300° |
| 2026-05-06 10:24 | 53.04689 | -6.81745 | 34039 ft | 466 kts | 300° |
| 2026-05-06 10:25 | 53.08034 | -6.90955 | 34039 ft | 466 kts | 301° |
| 2026-05-06 10:25 | 53.11380 | -7.00200 | 34039 ft | 466 kts | 300° |
| 2026-05-06 10:26 | 53.14719 | -7.09457 | 34040 ft | 466 kts | 300° |
| 2026-05-06 10:26 | 53.18029 | -7.18669 | 34037 ft | 466 kts | 301° |
| 2026-05-06 10:27 | 53.21361 | -7.27978 | 34036 ft | 467 kts | 301° |
| 2026-05-06 10:27 | 53.24684 | -7.37294 | 34037 ft | 467 kts | 301° |
| 2026-05-06 10:28 | 53.28004 | -7.46636 | 34037 ft | 467 kts | 301° |
| 2026-05-06 10:28 | 53.31312 | -7.55984 | 34036 ft | 467 kts | 301° |
| 2026-05-06 10:29 | 53.34619 | -7.65363 | 34037 ft | 467 kts | 300° |
| 2026-05-06 10:29 | 53.37915 | -7.74742 | 34029 ft | 467 kts | 301° |
| 2026-05-06 10:30 | 53.41710 | -7.83556 | 34039 ft | 466 kts | 309° |
| 2026-05-06 10:30 | 53.45846 | -7.91842 | 34040 ft | 467 kts | 310° |
| 2026-05-06 10:31 | 53.50061 | -8.00125 | 34038 ft | 466 kts | 310° |
| 2026-05-06 10:31 | 53.54276 | -8.08432 | 34037 ft | 466 kts | 310° |
| 2026-05-06 10:32 | 53.58467 | -8.16748 | 34039 ft | 466 kts | 310° |
| 2026-05-06 10:32 | 53.62655 | -8.25101 | 34039 ft | 466 kts | 310° |
| 2026-05-06 10:33 | 53.66802 | -8.33401 | 34028 ft | 466 kts | 310° |
| 2026-05-06 10:33 | 53.70974 | -8.41777 | 34038 ft | 465 kts | 311° |
| 2026-05-06 10:34 | 53.75125 | -8.50141 | 34027 ft | 464 kts | 311° |
| 2026-05-06 10:34 | 53.79272 | -8.58523 | 34024 ft | 464 kts | 311° |
| 2026-05-06 10:35 | 53.83408 | -8.66911 | 34022 ft | 464 kts | 311° |
| 2026-05-06 10:35 | 53.87534 | -8.75307 | 34020 ft | 464 kts | 311° |
| 2026-05-06 10:36 | 53.90967 | -8.82314 | 34020 ft | 464 kts | 310° |
| 2026-05-06 10:36 | 53.95301 | -8.90397 | 34022 ft | 461 kts | 315° |
| 2026-05-06 10:37 | 54.00540 | -8.99377 | 34018 ft | 459 kts | 316° |
| 2026-05-06 10:37 | 54.04248 | -9.05821 | 34027 ft | 458 kts | 315° |
| 2026-05-06 10:38 | 54.08657 | -9.13630 | 34030 ft | 458 kts | 315° |
| 2026-05-06 10:38 | 54.13051 | -9.21491 | 34040 ft | 458 kts | 315° |
| 2026-05-06 10:39 | 54.17435 | -9.29366 | 34045 ft | 456 kts | 315° |
| 2026-05-06 10:39 | 54.21786 | -9.37202 | 34042 ft | 454 kts | 315° |
| 2026-05-06 10:40 | 54.26141 | -9.45065 | 34044 ft | 454 kts | 315° |
| 2026-05-06 10:40 | 54.30455 | -9.52881 | 34048 ft | 454 kts | 314° |
| 2026-05-06 10:41 | 54.34794 | -9.60767 | 34046 ft | 454 kts | 314° |
| 2026-05-06 10:41 | 54.39119 | -9.68656 | 34049 ft | 452 kts | 314° |
| 2026-05-06 10:42 | 54.43408 | -9.76504 | 34048 ft | 449 kts | 314° |
| 2026-05-06 10:42 | 54.47667 | -9.84321 | 34048 ft | 449 kts | 314° |
| 2026-05-06 10:43 | 54.51931 | -9.92172 | 34056 ft | 449 kts | 314° |
| 2026-05-06 10:44 | 54.58320 | -10.03986 | 34059 ft | 449 kts | 314° |
| 2026-05-06 10:44 | 54.62565 | -10.11869 | 34058 ft | 447 kts | 314° |
| 2026-05-06 10:45 | 54.66791 | -10.19743 | 34052 ft | 446 kts | 314° |
| 2026-05-06 10:45 | 54.71006 | -10.27621 | 34056 ft | 446 kts | 314° |
| 2026-05-06 10:46 | 54.75219 | -10.35523 | 34048 ft | 446 kts | 314° |
| 2026-05-06 10:46 | 54.79395 | -10.43379 | 34053 ft | 446 kts | 314° |
| 2026-05-06 10:47 | 54.83598 | -10.51313 | 34051 ft | 445 kts | 314° |
| 2026-05-06 10:47 | 54.87775 | -10.59222 | 34050 ft | 444 kts | 314° |
| 2026-05-06 10:48 | 54.91948 | -10.67153 | 34048 ft | 444 kts | 314° |
| 2026-05-06 10:48 | 54.96112 | -10.75090 | 34047 ft | 444 kts | 314° |
| 2026-05-06 10:49 | 55.00270 | -10.83043 | 34045 ft | 444 kts | 314° |
| 2026-05-06 10:49 | 55.04424 | -10.91016 | 34061 ft | 444 kts | 313° |
| 2026-05-06 10:50 | 55.08521 | -10.98905 | 34039 ft | 440 kts | 313° |
| 2026-05-06 10:50 | 55.12642 | -11.06870 | 34030 ft | 438 kts | 313° |
| 2026-05-06 10:51 | 55.16690 | -11.14717 | 34035 ft | 437 kts | 313° |
| 2026-05-06 10:51 | 55.20756 | -11.22623 | 34037 ft | 437 kts | 313° |
| 2026-05-06 10:52 | 55.24816 | -11.30544 | 34039 ft | 437 kts | 313° |
| 2026-05-06 10:52 | 55.28865 | -11.38470 | 34034 ft | 435 kts | 313° |
| 2026-05-06 10:53 | 55.32890 | -11.46375 | 34031 ft | 434 kts | 313° |
| 2026-05-06 10:53 | 55.36912 | -11.54302 | 34030 ft | 434 kts | 313° |
| 2026-05-06 10:54 | 55.40922 | -11.62230 | 34027 ft | 434 kts | 313° |
| 2026-05-06 10:54 | 55.44931 | -11.70182 | 34024 ft | 434 kts | 313° |
| 2026-05-06 10:55 | 55.48930 | -11.78141 | 34020 ft | 434 kts | 313° |